Weather at Waukesha Memorial Hospital Heliport

Public forecast

Using degrees Fahrenheit for public forecast. Weather courtesy of forecast.io.

Closest aviation weather report (METAR) to Waukesha Memorial Hospital Heliport

Closest report is Waukesha County Airport, 1.8 nm (3.4 km) N. Retrieved 2021/06/13 17:45 UTC (25 minutes ago):

KUES 131745Z 30010KT 10SM CLR 28/09 A3002

Closest aviation forecast (TAF) to Waukesha Memorial Hospital Heliport

Closest forecast is Waukesha County Airport, 1.8 nm (3.4 km) N. Retrieved 2021/06/13 18:24 UTC (0 seconds ago):

TAF KUES 131723Z 1318/1418 32008KT P6SM SKC FM140000 28005KT P6SM SCT100 SCT250 FM140700 02006G15KT P6SM SCT080 BKN200 FM141100 36010G18KT P6SM FEW250